Impacts TAF Board INFO
FOR SITUATIONAL AWARENESS. NOT TO BE USED FOR FLIGHT PLANNING PURPOSES.
IDs:

KPDX - Portland Intl Arpt, OR, US

Issued at 1454 UTC 16 Jan 2018
Updated at 1514 UTC 16 Jan 2018
Potential Impact None Slight Moderate High
Time1453Z 16/16Z 16/17Z 16/18Z 16/19Z 16/20Z 16/21Z 16/22Z 16/23Z 17/00Z 17/01Z 17/02Z 17/03Z 17/04Z>>
Type OBS PRVL PRVL PRVL PRVL PRVL PRVL PRVL PRVL PRVL PRVL PRVL PRVL PRVL
VIS 10 >6 >6 >6 >6 >6 >6 >6 >6 >6 >6 >6 >6 >6
CIG 110 40 -- -- -- -- -- -- -- -- -- -- -- --
Cover BKN BKN SCT SCT SCT SCT SCT SCT SCT SCT SCT SCT SCT SCT
FltCat VFR VFR VFR VFR VFR VFR VFR VFR VFR VFR VFR VFR VFR VFR
WX -- VCSH -- -- -- -- -- -- -- -- -- -- -- --
WDir 110 110 120 120 120 120 120 120 120 120 120 100 100 100
WSpd 6 7 7 7 7 7 7 7 7 7 7 7 7 7
WGst -- -- -- -- -- -- -- -- -- -- -- -- -- --

Raw TAF
KPDX 161454Z 1615/1712 11007KT P6SM VCSH BKN040 BKN060
  FM161700 12007KT P6SM SCT070
  FM170200 10007KT P6SM SCT250
  FM171000 10009KT P6SM -RA SCT050 OVC080


Raw METAR
KPDX 161453Z 11006KT 10SM FEW015 SCT060 BKN110 07/05 A3018 RMK AO2 SLP220 60002 T00670050 53024
KPDX 161418Z 11007KT 10SM SCT015 BKN055 07/05 A3017 RMK AO2 T00670050 $
KPDX 161353Z 10009KT 10SM BKN016 BKN023 OVC032 07/06 A3016 RMK AO2 RAB02E34 SLP213 P0000 T00720056 $
KPDX 161303Z 11013KT 10SM -RA BKN022 BKN032 OVC085 07/06 A3014 RMK AO2 RAB02 P0000 T00720056 $
KPDX 161253Z 12012KT 10SM SCT024 BKN030 OVC070 07/06 A3013 RMK AO2 RAB06E40 SLP203 P0002 T00720061 $

METAR Board
Radar Display
Forecast Discussion

FOR SITUATIONAL AWARENESS. NOT TO BE USED FOR FLIGHT PLANNING PURPOSES.